This is the latest recevied weather packets stored in our database for station/object KY0TEQ-13. If no packets are shown the sender has not sent any weather packets the latest 10 day(s).
| Time | Temp. | Humidity | Pressure | Rain* | Wind** | Luminosity | Snow |
|---|---|---|---|---|---|---|---|
| 1777473699 | 8.33° C | 41% | 1303.7 hPa | 0 mm | - | 303 W/m² | - |
| 1777473394 | 7.78° C | 40% | 1303.5 hPa | 0 mm | - | 213 W/m² | - |
| 1777473090 | 7.22° C | 42% | 1303.5 hPa | 0 mm | - | 297 W/m² | - |
| 1777472787 | 6.67° C | 43% | 1303.7 hPa | 0 mm | - | 95 W/m² | - |
| 1777472484 | 6.11° C | 46% | 1303.5 hPa | 0 mm | - | 131 W/m² | - |
| 1777472181 | 6.11° C | 44% | 1303.7 hPa | 0 mm | - | 104 W/m² | - |
| 1777471881 | 6.11° C | 43% | 1303.3 hPa | 0 mm | - | 98 W/m² | - |
| 1777471578 | 6.11° C | 44% | 1303.5 hPa | 0 mm | - | 111 W/m² | - |
| 1777471275 | 6.11° C | 44% | 1303.7 hPa | 0 mm | - | 157 W/m² | - |
| 1777470971 | 6.67° C | 42% | 1303.3 hPa | 0 mm | - | 112 W/m² | - |
| 1777470669 | 6.11° C | 42% | 1303.4 hPa | 0 mm | - | 94 W/m² | - |
| 1777470364 | 6.11° C | 42% | 1303.5 hPa | 0 mm | - | 86 W/m² | - |
| 1777470061 | 5.56° C | 43% | 1303.4 hPa | 0 mm | - | 81 W/m² | - |
| 1777469757 | 5.56° C | 44% | 1303.4 hPa | 0 mm | - | 67 W/m² | - |
| 1777469453 | 5.56° C | 44% | 1303.3 hPa | 0 mm | - | 62 W/m² | - |
| 1777469147 | 5° C | 42% | 1303.2 hPa | 0 mm | - | 55 W/m² | - |
| 1777468842 | 5° C | 42% | 1303.3 hPa | 0 mm | - | 49 W/m² | - |
| 1777468539 | 4.44° C | 42% | 1303.2 hPa | 0 mm | - | 44 W/m² | - |
| 1777468236 | 3.33° C | 46% | 1303.3 hPa | 0 mm | - | 36 W/m² | - |
| 1777467933 | 3.33° C | 46% | 1303.2 hPa | 0 mm | - | 29 W/m² | - |
| 1777467628 | 3.33° C | 46% | 1303.5 hPa | 0 mm | - | 23 W/m² | - |
| 1777467323 | 3.33° C | 45% | 1303.3 hPa | 0 mm | - | 17 W/m² | - |
| 1777467020 | 3.33° C | 45% | 1303.3 hPa | 0 mm | - | 14 W/m² | - |
| 1777466717 | 3.33° C | 45% | 1303.2 hPa | 0 mm | - | 10 W/m² | - |
| 1777466415 | 2.78° C | 45% | 1303.7 hPa | 0 mm | - | 7 W/m² | - |
* Rain latest hour (hover to see other rain measurements)
** Current wind speed in m/s (hover to see current wind gust speed)